BEL1UF EBBR-LSGG
Flight info
| Callsign | BEL1UF |
|---|---|
| Flight time | 0h 56m |
| Altitude | 31000 |
| Route | ROUSY DCT GTQ DCT MOROK Z24 AKITO |
| Aircraft | A320/M-DE3FGHIJ1LORVWY/H |
Departure
| Time | 2026-05-01 07:51 |
|---|---|
| Airport | Brussels Airport (EBBR) |
Arrival
| Time | 2026-05-01 08:47 |
|---|---|
| Airport | Geneva International Airport (LSGG) |
| Time | Latitude | Longitude | Altitude | Speed | Heading |
|---|---|---|---|---|---|
| 2026-05-01 07:23 | 50.90307 | 4.48262 | 121 ft | 0 kts | 155° |
| 2026-05-01 07:37 | 50.90315 | 4.48256 | 117 ft | 4 kts | 154° |
| 2026-05-01 07:38 | 50.90338 | 4.48235 | 116 ft | 4 kts | 135° |
| 2026-05-01 07:38 | 50.90349 | 4.48206 | 116 ft | 3 kts | 70° |
| 2026-05-01 07:38 | 50.90348 | 4.48201 | 121 ft | 0 kts | 65° |
| 2026-05-01 07:40 | 50.90348 | 4.48202 | 121 ft | 1 kts | 65° |
| 2026-05-01 07:41 | 50.90361 | 4.48223 | 119 ft | 5 kts | 35° |
| 2026-05-01 07:41 | 50.90402 | 4.48259 | 120 ft | 9 kts | 36° |
| 2026-05-01 07:41 | 50.90486 | 4.48527 | 118 ft | 16 kts | 65° |
| 2026-05-01 07:42 | 50.90535 | 4.48696 | 117 ft | 18 kts | 65° |
| 2026-05-01 07:42 | 50.90588 | 4.48880 | 118 ft | 19 kts | 65° |
| 2026-05-01 07:42 | 50.90639 | 4.49054 | 119 ft | 15 kts | 65° |
| 2026-05-01 07:42 | 50.90608 | 4.49162 | 121 ft | 12 kts | 154° |
| 2026-05-01 07:43 | 50.90533 | 4.49216 | 121 ft | 13 kts | 156° |
| 2026-05-01 07:43 | 50.90444 | 4.49280 | 120 ft | 15 kts | 155° |
| 2026-05-01 07:43 | 50.90261 | 4.49395 | 125 ft | 13 kts | 185° |
| 2026-05-01 07:44 | 50.90084 | 4.49323 | 131 ft | 15 kts | 195° |
| 2026-05-01 07:44 | 50.89889 | 4.49242 | 138 ft | 12 kts | 193° |
| 2026-05-01 07:45 | 50.89818 | 4.49216 | 142 ft | 9 kts | 194° |
| 2026-05-01 07:45 | 50.89754 | 4.49189 | 146 ft | 11 kts | 194° |
| 2026-05-01 07:45 | 50.89671 | 4.49155 | 151 ft | 12 kts | 197° |
| 2026-05-01 07:45 | 50.89613 | 4.49106 | 154 ft | 7 kts | 211° |
| 2026-05-01 07:46 | 50.89580 | 4.49075 | 155 ft | 5 kts | 206° |
| 2026-05-01 07:46 | 50.89530 | 4.49049 | 157 ft | 9 kts | 193° |
| 2026-05-01 07:46 | 50.89365 | 4.48988 | 163 ft | 14 kts | 194° |
| 2026-05-01 07:47 | 50.89299 | 4.48907 | 165 ft | 11 kts | 246° |
| 2026-05-01 07:47 | 50.89269 | 4.48789 | 164 ft | 12 kts | 249° |
| 2026-05-01 07:47 | 50.89242 | 4.48676 | 164 ft | 10 kts | 250° |
| 2026-05-01 07:47 | 50.89218 | 4.48566 | 164 ft | 13 kts | 251° |
| 2026-05-01 07:48 | 50.89145 | 4.48246 | 164 ft | 15 kts | 250° |
| 2026-05-01 07:48 | 50.89110 | 4.48092 | 164 ft | 14 kts | 250° |
| 2026-05-01 07:48 | 50.89075 | 4.47950 | 164 ft | 13 kts | 239° |
| 2026-05-01 07:49 | 50.88992 | 4.47910 | 172 ft | 11 kts | 163° |
| 2026-05-01 07:49 | 50.88931 | 4.48124 | 179 ft | 15 kts | 89° |
| 2026-05-01 07:49 | 50.88964 | 4.48297 | 178 ft | 18 kts | 69° |
| 2026-05-01 07:50 | 50.89008 | 4.48489 | 179 ft | 19 kts | 71° |
| 2026-05-01 07:50 | 50.89099 | 4.48882 | 177 ft | 26 kts | 70° |
| 2026-05-01 07:50 | 50.89239 | 4.49495 | 176 ft | 94 kts | 70° |
| 2026-05-01 07:51 | 50.89532 | 4.50762 | 177 ft | 149 kts | 70° |
| 2026-05-01 07:51 | 50.89920 | 4.52405 | 661 ft | 160 kts | 72° |
| 2026-05-01 07:51 | 50.90386 | 4.54002 | 1456 ft | 160 kts | 68° |
| 2026-05-01 07:52 | 50.91429 | 4.57226 | 2741 ft | 167 kts | 68° |
| 2026-05-01 07:52 | 50.91959 | 4.58868 | 3397 ft | 168 kts | 68° |
| 2026-05-01 07:52 | 50.92512 | 4.60603 | 3802 ft | 186 kts | 67° |
| 2026-05-01 07:53 | 50.93766 | 4.64586 | 4475 ft | 226 kts | 73° |
| 2026-05-01 07:53 | 50.94287 | 4.67075 | 4924 ft | 248 kts | 76° |
| 2026-05-01 07:53 | 50.94801 | 4.69776 | 5587 ft | 261 kts | 77° |
| 2026-05-01 07:53 | 50.95321 | 4.72570 | 6443 ft | 265 kts | 79° |
| 2026-05-01 07:54 | 50.95188 | 4.77341 | 7986 ft | 261 kts | 111° |
| 2026-05-01 07:55 | 50.91576 | 4.83735 | 9479 ft | 266 kts | 140° |
| 2026-05-01 07:55 | 50.88670 | 4.87417 | 10161 ft | 271 kts | 143° |
| 2026-05-01 07:56 | 50.83692 | 4.93228 | 11586 ft | 319 kts | 144° |
| 2026-05-01 07:56 | 50.80068 | 4.97459 | 13069 ft | 328 kts | 144° |
| 2026-05-01 07:57 | 50.78223 | 4.99619 | 13811 ft | 332 kts | 144° |
| 2026-05-01 07:57 | 50.74470 | 5.04018 | 15074 ft | 343 kts | 143° |
| 2026-05-01 07:58 | 50.70462 | 5.08705 | 15736 ft | 368 kts | 144° |
| 2026-05-01 07:58 | 50.66309 | 5.13550 | 16907 ft | 375 kts | 143° |
| 2026-05-01 07:59 | 50.62066 | 5.18488 | 18002 ft | 383 kts | 143° |
| 2026-05-01 07:59 | 50.57733 | 5.23516 | 19055 ft | 390 kts | 143° |
| 2026-05-01 08:00 | 50.48413 | 5.32716 | 20941 ft | 403 kts | 149° |
| 2026-05-01 08:01 | 50.41095 | 5.39557 | 22282 ft | 413 kts | 148° |
| 2026-05-01 08:01 | 50.38629 | 5.41909 | 22725 ft | 416 kts | 148° |
| 2026-05-01 08:01 | 50.36153 | 5.44280 | 23167 ft | 419 kts | 148° |
| 2026-05-01 08:02 | 50.31151 | 5.49078 | 23987 ft | 424 kts | 148° |
| 2026-05-01 08:02 | 50.28627 | 5.51490 | 24337 ft | 427 kts | 148° |
| 2026-05-01 08:03 | 50.23522 | 5.56341 | 25010 ft | 432 kts | 147° |
| 2026-05-01 08:03 | 50.20941 | 5.58783 | 25334 ft | 435 kts | 147° |
| 2026-05-01 08:03 | 50.15740 | 5.63697 | 26029 ft | 439 kts | 147° |
| 2026-05-01 08:04 | 50.10483 | 5.68647 | 26685 ft | 444 kts | 147° |
| 2026-05-01 08:04 | 50.05180 | 5.73640 | 27304 ft | 448 kts | 147° |
| 2026-05-01 08:05 | 49.99835 | 5.78674 | 27948 ft | 451 kts | 147° |
| 2026-05-01 08:05 | 49.97150 | 5.81211 | 28243 ft | 453 kts | 147° |
| 2026-05-01 08:05 | 49.94454 | 5.83754 | 28533 ft | 455 kts | 147° |
| 2026-05-01 08:06 | 49.89011 | 5.88858 | 29062 ft | 459 kts | 147° |
| 2026-05-01 08:06 | 49.83508 | 5.94004 | 29552 ft | 465 kts | 148° |
| 2026-05-01 08:07 | 49.77964 | 5.99174 | 30288 ft | 464 kts | 148° |
| 2026-05-01 08:07 | 49.72439 | 6.04309 | 30997 ft | 462 kts | 148° |
| 2026-05-01 08:08 | 49.69683 | 6.06859 | 31336 ft | 461 kts | 148° |
| 2026-05-01 08:08 | 49.64186 | 6.11933 | 32020 ft | 459 kts | 148° |
| 2026-05-01 08:09 | 49.58720 | 6.16981 | 32714 ft | 457 kts | 148° |
| 2026-05-01 08:09 | 49.56000 | 6.19496 | 33104 ft | 454 kts | 147° |
| 2026-05-01 08:09 | 49.53295 | 6.21990 | 33518 ft | 452 kts | 147° |
| 2026-05-01 08:10 | 49.47945 | 6.26901 | 34204 ft | 449 kts | 147° |
| 2026-05-01 08:10 | 49.42573 | 6.31827 | 34713 ft | 451 kts | 147° |
| 2026-05-01 08:11 | 49.37178 | 6.36757 | 35188 ft | 452 kts | 148° |
| 2026-05-01 08:11 | 49.31760 | 6.41691 | 35304 ft | 452 kts | 148° |
| 2026-05-01 08:12 | 49.23661 | 6.49071 | 35296 ft | 451 kts | 148° |
| 2026-05-01 08:13 | 49.15560 | 6.56406 | 35299 ft | 451 kts | 148° |
| 2026-05-01 08:13 | 49.07448 | 6.63719 | 35316 ft | 451 kts | 147° |
| 2026-05-01 08:14 | 49.02009 | 6.68508 | 35307 ft | 453 kts | 152° |
| 2026-05-01 08:14 | 48.95968 | 6.71232 | 35297 ft | 457 kts | 172° |
| 2026-05-01 08:15 | 48.86406 | 6.71137 | 35294 ft | 459 kts | 180° |
| 2026-05-01 08:16 | 48.80026 | 6.70885 | 35298 ft | 458 kts | 180° |
| 2026-05-01 08:16 | 48.73684 | 6.70647 | 35302 ft | 458 kts | 180° |
| 2026-05-01 08:17 | 48.67301 | 6.70398 | 35296 ft | 458 kts | 180° |
| 2026-05-01 08:17 | 48.60932 | 6.70147 | 35294 ft | 457 kts | 180° |
| 2026-05-01 08:18 | 48.54569 | 6.69903 | 35288 ft | 457 kts | 180° |
| 2026-05-01 08:19 | 48.41849 | 6.69410 | 35283 ft | 457 kts | 180° |
| 2026-05-01 08:19 | 48.35481 | 6.69168 | 35281 ft | 457 kts | 180° |
| 2026-05-01 08:20 | 48.29159 | 6.68927 | 35280 ft | 458 kts | 180° |
| 2026-05-01 08:20 | 48.22752 | 6.68683 | 35280 ft | 457 kts | 180° |
| 2026-05-01 08:21 | 48.16435 | 6.68441 | 35285 ft | 457 kts | 180° |
| 2026-05-01 08:21 | 48.10081 | 6.68192 | 35296 ft | 457 kts | 180° |
| 2026-05-01 08:22 | 48.03737 | 6.67949 | 35290 ft | 456 kts | 180° |
| 2026-05-01 08:22 | 47.97386 | 6.67703 | 35292 ft | 456 kts | 180° |
| 2026-05-01 08:23 | 47.91045 | 6.67464 | 35298 ft | 456 kts | 180° |
| 2026-05-01 08:23 | 47.84712 | 6.67223 | 35301 ft | 455 kts | 180° |
| 2026-05-01 08:24 | 47.78378 | 6.66993 | 35303 ft | 455 kts | 179° |
| 2026-05-01 08:24 | 47.72046 | 6.66769 | 35303 ft | 455 kts | 180° |
| 2026-05-01 08:25 | 47.65716 | 6.66542 | 35302 ft | 455 kts | 180° |
| 2026-05-01 08:25 | 47.59391 | 6.66290 | 35300 ft | 455 kts | 180° |
| 2026-05-01 08:26 | 47.53063 | 6.66045 | 35306 ft | 455 kts | 180° |
| 2026-05-01 08:26 | 47.46740 | 6.65813 | 35302 ft | 454 kts | 180° |
| 2026-05-01 08:27 | 47.40416 | 6.65586 | 35181 ft | 456 kts | 180° |
| 2026-05-01 08:27 | 47.37249 | 6.65473 | 34768 ft | 453 kts | 180° |
| 2026-05-01 08:27 | 47.34103 | 6.65357 | 34532 ft | 453 kts | 180° |
| 2026-05-01 08:27 | 47.30945 | 6.65240 | 34292 ft | 454 kts | 180° |
| 2026-05-01 08:28 | 47.27782 | 6.65122 | 34023 ft | 455 kts | 181° |
| 2026-05-01 08:28 | 47.24674 | 6.64578 | 33749 ft | 458 kts | 191° |
| 2026-05-01 08:28 | 47.21585 | 6.63177 | 33480 ft | 460 kts | 201° |
| 2026-05-01 08:28 | 47.18775 | 6.61036 | 33207 ft | 463 kts | 212° |
| 2026-05-01 08:29 | 47.16222 | 6.58162 | 32938 ft | 463 kts | 220° |
| 2026-05-01 08:29 | 47.13803 | 6.54962 | 32673 ft | 462 kts | 220° |
| 2026-05-01 08:29 | 47.11437 | 6.51852 | 32330 ft | 463 kts | 220° |
| 2026-05-01 08:29 | 47.09032 | 6.48709 | 31946 ft | 463 kts | 220° |
| 2026-05-01 08:30 | 47.06617 | 6.45567 | 31567 ft | 465 kts | 220° |
| 2026-05-01 08:30 | 47.04194 | 6.42421 | 31193 ft | 466 kts | 220° |
| 2026-05-01 08:30 | 47.01763 | 6.39267 | 30725 ft | 467 kts | 220° |
| 2026-05-01 08:30 | 46.99329 | 6.36106 | 30220 ft | 469 kts | 220° |
| 2026-05-01 08:31 | 46.96887 | 6.32927 | 29653 ft | 470 kts | 220° |
| 2026-05-01 08:31 | 46.94438 | 6.29738 | 29099 ft | 472 kts | 220° |
| 2026-05-01 08:31 | 46.91980 | 6.26543 | 28548 ft | 473 kts | 220° |
| 2026-05-01 08:31 | 46.89518 | 6.23351 | 28015 ft | 472 kts | 220° |
| 2026-05-01 08:32 | 46.87076 | 6.20173 | 27502 ft | 469 kts | 220° |
| 2026-05-01 08:32 | 46.84651 | 6.17011 | 27063 ft | 466 kts | 220° |
| 2026-05-01 08:32 | 46.82244 | 6.13870 | 26634 ft | 463 kts | 220° |
| 2026-05-01 08:32 | 46.79858 | 6.10758 | 26036 ft | 457 kts | 219° |
| 2026-05-01 08:33 | 46.77509 | 6.07699 | 25420 ft | 450 kts | 219° |
| 2026-05-01 08:33 | 46.75186 | 6.04679 | 24787 ft | 445 kts | 219° |
| 2026-05-01 08:33 | 46.72882 | 6.01693 | 24141 ft | 441 kts | 219° |
| 2026-05-01 08:33 | 46.70599 | 5.98744 | 23422 ft | 437 kts | 219° |
| 2026-05-01 08:34 | 46.68335 | 5.95826 | 22708 ft | 433 kts | 219° |
| 2026-05-01 08:34 | 46.66090 | 5.92939 | 22023 ft | 428 kts | 218° |
| 2026-05-01 08:34 | 46.63699 | 5.90531 | 21392 ft | 420 kts | 204° |
| 2026-05-01 08:34 | 46.60948 | 5.89035 | 20392 ft | 419 kts | 193° |
| 2026-05-01 08:35 | 46.58146 | 5.87924 | 19317 ft | 427 kts | 192° |
| 2026-05-01 08:35 | 46.55252 | 5.86831 | 18326 ft | 431 kts | 192° |
| 2026-05-01 08:35 | 46.52366 | 5.85765 | 17275 ft | 423 kts | 192° |
| 2026-05-01 08:35 | 46.49526 | 5.84718 | 16078 ft | 420 kts | 192° |
| 2026-05-01 08:36 | 46.46676 | 5.83658 | 15111 ft | 414 kts | 193° |
| 2026-05-01 08:36 | 46.43944 | 5.82632 | 14319 ft | 406 kts | 193° |
| 2026-05-01 08:36 | 46.41272 | 5.81621 | 13873 ft | 389 kts | 193° |
| 2026-05-01 08:36 | 46.38714 | 5.80651 | 13407 ft | 373 kts | 193° |
| 2026-05-01 08:37 | 46.36251 | 5.79716 | 12946 ft | 359 kts | 193° |
| 2026-05-01 08:37 | 46.33881 | 5.78819 | 12490 ft | 346 kts | 194° |
| 2026-05-01 08:37 | 46.31585 | 5.77949 | 12038 ft | 336 kts | 193° |
| 2026-05-01 08:37 | 46.29359 | 5.77108 | 11593 ft | 327 kts | 194° |
| 2026-05-01 08:38 | 46.27205 | 5.76294 | 11160 ft | 313 kts | 193° |
| 2026-05-01 08:38 | 46.25142 | 5.75519 | 10712 ft | 300 kts | 194° |
| 2026-05-01 08:38 | 46.23169 | 5.74780 | 10362 ft | 287 kts | 194° |
| 2026-05-01 08:38 | 46.21250 | 5.74062 | 9983 ft | 282 kts | 194° |
| 2026-05-01 08:39 | 46.19365 | 5.73358 | 9591 ft | 277 kts | 194° |
| 2026-05-01 08:39 | 46.17518 | 5.72669 | 9199 ft | 271 kts | 194° |
| 2026-05-01 08:39 | 46.15711 | 5.71992 | 8814 ft | 266 kts | 193° |
| 2026-05-01 08:39 | 46.13939 | 5.71330 | 8486 ft | 259 kts | 193° |
| 2026-05-01 08:40 | 46.10529 | 5.70082 | 7984 ft | 248 kts | 193° |
| 2026-05-01 08:40 | 46.08845 | 5.69710 | 7767 ft | 241 kts | 175° |
| 2026-05-01 08:40 | 46.07242 | 5.70317 | 7697 ft | 241 kts | 150° |
| 2026-05-01 08:41 | 46.05972 | 5.71859 | 7652 ft | 241 kts | 125° |
| 2026-05-01 08:41 | 46.05055 | 5.73873 | 7600 ft | 241 kts | 122° |
| 2026-05-01 08:41 | 46.04178 | 5.75947 | 7318 ft | 247 kts | 114° |
| 2026-05-01 08:41 | 46.03752 | 5.78340 | 6936 ft | 247 kts | 92° |
| 2026-05-01 08:42 | 46.03943 | 5.80759 | 6700 ft | 243 kts | 73° |
| 2026-05-01 08:42 | 46.04687 | 5.82908 | 6434 ft | 241 kts | 53° |
| 2026-05-01 08:42 | 46.05834 | 5.84686 | 6112 ft | 243 kts | 46° |
| 2026-05-01 08:42 | 46.07024 | 5.86402 | 5791 ft | 242 kts | 46° |
| 2026-05-01 08:43 | 46.08200 | 5.88107 | 5458 ft | 236 kts | 46° |
| 2026-05-01 08:43 | 46.08957 | 5.89207 | 5284 ft | 230 kts | 46° |
| 2026-05-01 08:43 | 46.10066 | 5.90822 | 4990 ft | 223 kts | 46° |
| 2026-05-01 08:43 | 46.11141 | 5.92385 | 4683 ft | 217 kts | 45° |
| 2026-05-01 08:44 | 46.12188 | 5.93905 | 4400 ft | 211 kts | 46° |
| 2026-05-01 08:44 | 46.13201 | 5.95374 | 4154 ft | 200 kts | 46° |
| 2026-05-01 08:44 | 46.14452 | 5.97202 | 3808 ft | 189 kts | 46° |
| 2026-05-01 08:44 | 46.15070 | 5.98103 | 3628 ft | 185 kts | 45° |
| 2026-05-01 08:45 | 46.15962 | 5.99411 | 3371 ft | 180 kts | 45° |
| 2026-05-01 08:45 | 46.16822 | 6.00667 | 3110 ft | 173 kts | 45° |
| 2026-05-01 08:45 | 46.17644 | 6.01870 | 2881 ft | 165 kts | 45° |
| 2026-05-01 08:45 | 46.18417 | 6.03004 | 2687 ft | 155 kts | 45° |
| 2026-05-01 08:46 | 46.19163 | 6.04093 | 2458 ft | 150 kts | 44° |
| 2026-05-01 08:46 | 46.19891 | 6.05156 | 2239 ft | 148 kts | 45° |
| 2026-05-01 08:46 | 46.20609 | 6.06207 | 2043 ft | 146 kts | 45° |
| 2026-05-01 08:46 | 46.21323 | 6.07248 | 1851 ft | 146 kts | 45° |
| 2026-05-01 08:47 | 46.22033 | 6.08290 | 1649 ft | 145 kts | 46° |
| 2026-05-01 08:47 | 46.22739 | 6.09323 | 1467 ft | 144 kts | 46° |
| 2026-05-01 08:47 | 46.23400 | 6.10299 | 1399 ft | 109 kts | 46° |
| 2026-05-01 08:47 | 46.23743 | 6.10804 | 1380 ft | 46 kts | 45° |
| 2026-05-01 08:48 | 46.23856 | 6.10975 | 1379 ft | 14 kts | 57° |
| 2026-05-01 08:48 | 46.23819 | 6.11072 | 1379 ft | 12 kts | 165° |
| 2026-05-01 08:48 | 46.23771 | 6.11085 | 1380 ft | 4 kts | 170° |
| 2026-05-01 08:48 | 46.23751 | 6.11090 | 1383 ft | 6 kts | 171° |
| 2026-05-01 08:49 | 46.23688 | 6.11056 | 1385 ft | 13 kts | 224° |
| 2026-05-01 08:49 | 46.23632 | 6.10972 | 1385 ft | 10 kts | 226° |
| 2026-05-01 08:49 | 46.23575 | 6.10889 | 1389 ft | 15 kts | 225° |
| 2026-05-01 08:49 | 46.23490 | 6.10763 | 1389 ft | 18 kts | 225° |
| 2026-05-01 08:50 | 46.23395 | 6.10632 | 1399 ft | 19 kts | 220° |
| 2026-05-01 08:50 | 46.23296 | 6.10490 | 1397 ft | 21 kts | 225° |
| 2026-05-01 08:50 | 46.23209 | 6.10363 | 1398 ft | 12 kts | 225° |
| 2026-05-01 08:50 | 46.23150 | 6.10371 | 1396 ft | 9 kts | 136° |
| 2026-05-01 08:51 | 46.23109 | 6.10431 | 1397 ft | 8 kts | 135° |
| 2026-05-01 08:51 | 46.23070 | 6.10480 | 1398 ft | 7 kts | 151° |
| 2026-05-01 08:51 | 46.23034 | 6.10463 | 1399 ft | 5 kts | 218° |
| 2026-05-01 08:51 | 46.23007 | 6.10457 | 1393 ft | 3 kts | 157° |
| 2026-05-01 08:52 | 46.22992 | 6.10475 | 1402 ft | 2 kts | 137° |
| 2026-05-01 08:52 | 46.22984 | 6.10486 | 1399 ft | 2 kts | 136° |
| 2026-05-01 08:52 | 46.22978 | 6.10494 | 1396 ft | 1 kts | 136° |
| 2026-05-01 08:52 | 46.22977 | 6.10496 | 1396 ft | 0 kts | 136° |
| 2026-05-01 08:54 | 46.22980 | 6.10493 | 1393 ft | 0 kts | 135° |